sensor_id;sensor_type;location;lat;lon;timestamp;temperature;humidity
12872;DHT22;6504;53.766;9.626;2023-04-15T00:00:03;7.80;99.90
12872;DHT22;6504;53.766;9.626;2023-04-15T00:02:31;7.80;99.90
12872;DHT22;6504;53.766;9.626;2023-04-15T00:05:00;7.90;99.90
12872;DHT22;6504;53.766;9.626;2023-04-15T00:07:29;7.90;99.90
12872;DHT22;6504;53.766;9.626;2023-04-15T00:09:57;7.90;99.90
12872;DHT22;6504;53.766;9.626;2023-04-15T00:12:26;7.90;99.90
12872;DHT22;6504;53.766;9.626;2023-04-15T00:14:54;7.90;99.90
12872;DHT22;6504;53.766;9.626;2023-04-15T00:17:22;7.90;99.90
12872;DHT22;6504;53.766;9.626;2023-04-15T00:19:50;8.00;99.90
12872;DHT22;6504;53.766;9.626;2023-04-15T00:22:18;8.00;99.90
12872;DHT22;6504;53.766;9.626;2023-04-15T00:24:48;8.00;99.90
12872;DHT22;6504;53.766;9.626;2023-04-15T00:27:16;8.10;99.90
12872;DHT22;6504;53.766;9.626;2023-04-15T00:29:44;8.10;99.90
12872;DHT22;6504;53.766;9.626;2023-04-15T00:32:12;8.10;99.90
12872;DHT22;6504;53.766;9.626;2023-04-15T00:34:41;8.20;99.90
12872;DHT22;6504;53.766;9.626;2023-04-15T00:37:09;8.20;99.90
12872;DHT22;6504;53.766;9.626;2023-04-15T00:39:37;8.20;99.90
12872;DHT22;6504;53.766;9.626;2023-04-15T00:42:07;8.20;99.90
12872;DHT22;6504;53.766;9.626;2023-04-15T00:44:36;8.20;99.90
12872;DHT22;6504;53.766;9.626;2023-04-15T00:47:04;8.20;99.90
12872;DHT22;6504;53.766;9.626;2023-04-15T00:49:33;8.30;99.90
12872;DHT22;6504;53.766;9.626;2023-04-15T00:52:01;8.30;99.90
12872;DHT22;6504;53.766;9.626;2023-04-15T00:54:29;8.30;99.90
12872;DHT22;6504;53.766;9.626;2023-04-15T00:56:57;8.30;99.90
12872;DHT22;6504;53.766;9.626;2023-04-15T00:59:28;8.30;99.90
12872;DHT22;6504;53.766;9.626;2023-04-15T01:01:56;8.30;99.90
12872;DHT22;6504;53.766;9.626;2023-04-15T01:04:24;8.30;99.90
12872;DHT22;6504;53.766;9.626;2023-04-15T01:06:53;8.30;99.90
12872;DHT22;6504;53.766;9.626;2023-04-15T01:09:21;8.30;99.90
12872;DHT22;6504;53.766;9.626;2023-04-15T01:11:49;8.30;99.90
12872;DHT22;6504;53.766;9.626;2023-04-15T01:14:17;8.30;99.90
12872;DHT22;6504;53.766;9.626;2023-04-15T01:16:47;8.30;99.90
12872;DHT22;6504;53.766;9.626;2023-04-15T01:19:15;8.30;99.90
12872;DHT22;6504;53.766;9.626;2023-04-15T01:21:44;8.30;99.90
12872;DHT22;6504;53.766;9.626;2023-04-15T01:24:14;8.30;99.90
12872;DHT22;6504;53.766;9.626;2023-04-15T01:26:46;8.30;99.90
12872;DHT22;6504;53.766;9.626;2023-04-15T01:29:15;8.30;99.90
12872;DHT22;6504;53.766;9.626;2023-04-15T01:31:49;8.30;99.90
12872;DHT22;6504;53.766;9.626;2023-04-15T01:34:18;8.30;99.90
12872;DHT22;6504;53.766;9.626;2023-04-15T01:36:46;8.20;99.90
12872;DHT22;6504;53.766;9.626;2023-04-15T01:39:14;8.20;99.90
12872;DHT22;6504;53.766;9.626;2023-04-15T01:41:42;8.20;99.90
12872;DHT22;6504;53.766;9.626;2023-04-15T01:44:11;8.20;99.90
12872;DHT22;6504;53.766;9.626;2023-04-15T01:46:39;8.10;99.90
12872;DHT22;6504;53.766;9.626;2023-04-15T01:49:07;8.20;99.90
12872;DHT22;6504;53.766;9.626;2023-04-15T01:51:35;8.20;99.90
12872;DHT22;6504;53.766;9.626;2023-04-15T01:54:04;8.20;99.90
12872;DHT22;6504;53.766;9.626;2023-04-15T01:56:32;8.20;99.90
12872;DHT22;6504;53.766;9.626;2023-04-15T01:59:00;8.20;99.90
12872;DHT22;6504;53.766;9.626;2023-04-15T02:01:30;8.20;99.90
12872;DHT22;6504;53.766;9.626;2023-04-15T02:03:59;8.20;99.90
12872;DHT22;6504;53.766;9.626;2023-04-15T02:06:27;8.20;99.90
12872;DHT22;6504;53.766;9.626;2023-04-15T02:08:55;8.20;99.90
12872;DHT22;6504;53.766;9.626;2023-04-15T02:11:25;8.20;99.90
12872;DHT22;6504;53.766;9.626;2023-04-15T02:13:53;8.20;99.90
12872;DHT22;6504;53.766;9.626;2023-04-15T02:16:21;8.20;99.90
12872;DHT22;6504;53.766;9.626;2023-04-15T02:18:50;8.20;99.90
12872;DHT22;6504;53.766;9.626;2023-04-15T02:21:18;8.20;99.90
12872;DHT22;6504;53.766;9.626;2023-04-15T02:23:46;8.20;99.90
12872;DHT22;6504;53.766;9.626;2023-04-15T02:26:15;8.20;99.90
12872;DHT22;6504;53.766;9.626;2023-04-15T02:28:43;8.20;99.90
12872;DHT22;6504;53.766;9.626;2023-04-15T02:31:11;8.20;99.90
12872;DHT22;6504;53.766;9.626;2023-04-15T02:33:39;8.30;99.90
12872;DHT22;6504;53.766;9.626;2023-04-15T02:36:08;8.20;99.90
12872;DHT22;6504;53.766;9.626;2023-04-15T02:38:38;8.20;99.90
12872;DHT22;6504;53.766;9.626;2023-04-15T02:41:08;8.20;99.90
12872;DHT22;6504;53.766;9.626;2023-04-15T02:43:37;8.20;99.90
12872;DHT22;6504;53.766;9.626;2023-04-15T02:46:05;8.20;99.90
12872;DHT22;6504;53.766;9.626;2023-04-15T02:48:34;8.20;99.90
12872;DHT22;6504;53.766;9.626;2023-04-15T02:51:14;8.20;99.90
12872;DHT22;6504;53.766;9.626;2023-04-15T02:53:42;8.20;99.90
12872;DHT22;6504;53.766;9.626;2023-04-15T02:56:10;8.20;99.90
12872;DHT22;6504;53.766;9.626;2023-04-15T02:58:38;8.20;99.90
12872;DHT22;6504;53.766;9.626;2023-04-15T03:01:07;8.20;99.90
12872;DHT22;6504;53.766;9.626;2023-04-15T03:03:35;8.20;99.90
12872;DHT22;6504;53.766;9.626;2023-04-15T03:06:03;8.20;99.90
12872;DHT22;6504;53.766;9.626;2023-04-15T03:08:33;8.20;99.90
12872;DHT22;6504;53.766;9.626;2023-04-15T03:11:02;8.20;99.90
12872;DHT22;6504;53.766;9.626;2023-04-15T03:13:30;8.20;99.90
12872;DHT22;6504;53.766;9.626;2023-04-15T03:15:58;8.20;99.90
12872;DHT22;6504;53.766;9.626;2023-04-15T03:18:26;8.20;99.90
12872;DHT22;6504;53.766;9.626;2023-04-15T03:20:55;8.20;99.90
12872;DHT22;6504;53.766;9.626;2023-04-15T03:23:23;8.10;99.90
12872;DHT22;6504;53.766;9.626;2023-04-15T03:25:53;8.10;99.90
12872;DHT22;6504;53.766;9.626;2023-04-15T03:28:22;8.10;99.90
12872;DHT22;6504;53.766;9.626;2023-04-15T03:30:51;8.10;99.90
12872;DHT22;6504;53.766;9.626;2023-04-15T03:33:19;8.10;99.90
12872;DHT22;6504;53.766;9.626;2023-04-15T03:35:47;8.10;99.90
12872;DHT22;6504;53.766;9.626;2023-04-15T03:38:15;8.10;99.90
12872;DHT22;6504;53.766;9.626;2023-04-15T03:40:44;8.10;99.90
12872;DHT22;6504;53.766;9.626;2023-04-15T03:43:14;8.10;99.90
12872;DHT22;6504;53.766;9.626;2023-04-15T03:45:42;8.10;99.90
12872;DHT22;6504;53.766;9.626;2023-04-15T03:48:10;8.10;99.90
12872;DHT22;6504;53.766;9.626;2023-04-15T03:50:43;8.10;99.90
12872;DHT22;6504;53.766;9.626;2023-04-15T03:53:11;8.10;99.90
12872;DHT22;6504;53.766;9.626;2023-04-15T03:55:39;8.10;99.90
12872;DHT22;6504;53.766;9.626;2023-04-15T03:58:07;8.10;99.90
12872;DHT22;6504;53.766;9.626;2023-04-15T04:00:40;8.10;99.90
12872;DHT22;6504;53.766;9.626;2023-04-15T04:03:08;8.10;99.90
12872;DHT22;6504;53.766;9.626;2023-04-15T04:05:36;8.10;99.90
12872;DHT22;6504;53.766;9.626;2023-04-15T04:08:07;8.10;99.90
12872;DHT22;6504;53.766;9.626;2023-04-15T04:10:35;8.10;99.90
12872;DHT22;6504;53.766;9.626;2023-04-15T04:13:03;8.10;99.90
12872;DHT22;6504;53.766;9.626;2023-04-15T04:15:31;8.20;99.90
12872;DHT22;6504;53.766;9.626;2023-04-15T04:18:00;8.20;99.90
12872;DHT22;6504;53.766;9.626;2023-04-15T04:20:29;8.20;99.90
12872;DHT22;6504;53.766;9.626;2023-04-15T04:22:58;8.20;99.90
12872;DHT22;6504;53.766;9.626;2023-04-15T04:25:26;8.20;99.90
12872;DHT22;6504;53.766;9.626;2023-04-15T04:27:54;8.20;99.90
12872;DHT22;6504;53.766;9.626;2023-04-15T04:30:22;8.20;99.90
12872;DHT22;6504;53.766;9.626;2023-04-15T04:32:50;8.20;99.90
12872;DHT22;6504;53.766;9.626;2023-04-15T04:35:19;8.20;99.90
12872;DHT22;6504;53.766;9.626;2023-04-15T04:37:48;8.20;99.90
12872;DHT22;6504;53.766;9.626;2023-04-15T04:40:16;8.20;99.90
12872;DHT22;6504;53.766;9.626;2023-04-15T04:42:44;8.20;99.90
12872;DHT22;6504;53.766;9.626;2023-04-15T04:45:12;8.20;99.90
12872;DHT22;6504;53.766;9.626;2023-04-15T04:47:40;8.20;99.90
12872;DHT22;6504;53.766;9.626;2023-04-15T04:50:09;8.20;99.90
12872;DHT22;6504;53.766;9.626;2023-04-15T04:52:38;8.20;99.90
12872;DHT22;6504;53.766;9.626;2023-04-15T04:55:07;8.20;99.90
12872;DHT22;6504;53.766;9.626;2023-04-15T04:57:36;8.20;99.90
12872;DHT22;6504;53.766;9.626;2023-04-15T05:00:07;8.20;99.90
12872;DHT22;6504;53.766;9.626;2023-04-15T05:02:36;8.30;99.90
12872;DHT22;6504;53.766;9.626;2023-04-15T05:05:05;8.30;99.90
12872;DHT22;6504;53.766;9.626;2023-04-15T05:07:33;8.30;99.90
12872;DHT22;6504;53.766;9.626;2023-04-15T05:10:04;8.30;99.90
12872;DHT22;6504;53.766;9.626;2023-04-15T05:12:32;8.30;99.90
12872;DHT22;6504;53.766;9.626;2023-04-15T05:15:00;8.30;99.90
12872;DHT22;6504;53.766;9.626;2023-04-15T05:17:28;8.20;99.90
12872;DHT22;6504;53.766;9.626;2023-04-15T05:19:57;8.20;99.90
12872;DHT22;6504;53.766;9.626;2023-04-15T05:22:25;8.20;99.90
12872;DHT22;6504;53.766;9.626;2023-04-15T05:24:53;8.20;99.90
12872;DHT22;6504;53.766;9.626;2023-04-15T05:27:23;8.20;99.90
12872;DHT22;6504;53.766;9.626;2023-04-15T05:29:51;8.20;99.90
12872;DHT22;6504;53.766;9.626;2023-04-15T05:32:19;8.20;99.90
12872;DHT22;6504;53.766;9.626;2023-04-15T05:34:48;8.20;99.90
12872;DHT22;6504;53.766;9.626;2023-04-15T05:37:16;8.20;99.90
12872;DHT22;6504;53.766;9.626;2023-04-15T05:39:46;8.20;99.90
12872;DHT22;6504;53.766;9.626;2023-04-15T05:42:14;8.20;99.90
12872;DHT22;6504;53.766;9.626;2023-04-15T05:44:44;8.20;99.90
12872;DHT22;6504;53.766;9.626;2023-04-15T05:47:12;8.20;99.90
12872;DHT22;6504;53.766;9.626;2023-04-15T05:49:40;8.30;99.90
12872;DHT22;6504;53.766;9.626;2023-04-15T05:52:08;8.20;99.90
12872;DHT22;6504;53.766;9.626;2023-04-15T05:54:36;8.30;99.90
12872;DHT22;6504;53.766;9.626;2023-04-15T05:57:04;8.30;99.90
12872;DHT22;6504;53.766;9.626;2023-04-15T05:59:33;8.30;99.90
12872;DHT22;6504;53.766;9.626;2023-04-15T06:02:04;8.30;99.90
12872;DHT22;6504;53.766;9.626;2023-04-15T06:04:33;8.30;99.90
12872;DHT22;6504;53.766;9.626;2023-04-15T06:07:01;8.30;99.90
12872;DHT22;6504;53.766;9.626;2023-04-15T06:09:29;8.30;99.90
12872;DHT22;6504;53.766;9.626;2023-04-15T06:11:58;8.30;99.90
12872;DHT22;6504;53.766;9.626;2023-04-15T06:14:27;8.40;99.90
12872;DHT22;6504;53.766;9.626;2023-04-15T06:16:55;8.40;99.90
12872;DHT22;6504;53.766;9.626;2023-04-15T06:19:24;8.40;99.90
12872;DHT22;6504;53.766;9.626;2023-04-15T06:21:52;8.40;99.90
12872;DHT22;6504;53.766;9.626;2023-04-15T06:24:21;8.40;99.90
12872;DHT22;6504;53.766;9.626;2023-04-15T06:26:49;8.40;99.90
12872;DHT22;6504;53.766;9.626;2023-04-15T06:29:17;8.40;99.90
12872;DHT22;6504;53.766;9.626;2023-04-15T06:31:46;8.40;99.90
12872;DHT22;6504;53.766;9.626;2023-04-15T06:34:15;8.50;99.90
12872;DHT22;6504;53.766;9.626;2023-04-15T06:36:44;8.40;99.90
12872;DHT22;6504;53.766;9.626;2023-04-15T06:39:12;8.50;99.90
12872;DHT22;6504;53.766;9.626;2023-04-15T06:41:40;8.40;99.90
12872;DHT22;6504;53.766;9.626;2023-04-15T06:44:08;8.40;99.90
12872;DHT22;6504;53.766;9.626;2023-04-15T06:46:37;8.50;99.90
12872;DHT22;6504;53.766;9.626;2023-04-15T06:49:05;8.50;99.90
12872;DHT22;6504;53.766;9.626;2023-04-15T06:51:33;8.40;99.90
12872;DHT22;6504;53.766;9.626;2023-04-15T06:54:03;8.50;99.90
12872;DHT22;6504;53.766;9.626;2023-04-15T06:56:32;8.50;99.90
12872;DHT22;6504;53.766;9.626;2023-04-15T06:59:00;8.50;99.90
12872;DHT22;6504;53.766;9.626;2023-04-15T07:01:28;8.50;99.90
12872;DHT22;6504;53.766;9.626;2023-04-15T07:03:57;8.50;99.90
12872;DHT22;6504;53.766;9.626;2023-04-15T07:06:25;8.50;99.90
12872;DHT22;6504;53.766;9.626;2023-04-15T07:08:53;8.60;99.90
12872;DHT22;6504;53.766;9.626;2023-04-15T07:11:25;8.50;99.90
12872;DHT22;6504;53.766;9.626;2023-04-15T07:13:53;8.60;99.90
12872;DHT22;6504;53.766;9.626;2023-04-15T07:16:21;8.60;99.90
12872;DHT22;6504;53.766;9.626;2023-04-15T07:18:49;8.60;99.90
12872;DHT22;6504;53.766;9.626;2023-04-15T07:21:18;8.60;99.90
12872;DHT22;6504;53.766;9.626;2023-04-15T07:23:46;8.60;99.90
12872;DHT22;6504;53.766;9.626;2023-04-15T07:26:14;8.60;99.90
12872;DHT22;6504;53.766;9.626;2023-04-15T07:28:43;8.60;99.90
12872;DHT22;6504;53.766;9.626;2023-04-15T07:31:12;8.60;99.90
12872;DHT22;6504;53.766;9.626;2023-04-15T07:33:40;8.60;99.90
12872;DHT22;6504;53.766;9.626;2023-04-15T07:36:08;8.60;99.90
12872;DHT22;6504;53.766;9.626;2023-04-15T07:38:36;8.60;99.90
12872;DHT22;6504;53.766;9.626;2023-04-15T07:41:05;8.60;99.90
12872;DHT22;6504;53.766;9.626;2023-04-15T07:43:34;8.60;99.90
12872;DHT22;6504;53.766;9.626;2023-04-15T07:46:04;8.60;99.90
12872;DHT22;6504;53.766;9.626;2023-04-15T07:48:32;8.50;99.90
12872;DHT22;6504;53.766;9.626;2023-04-15T07:51:03;8.60;99.90
12872;DHT22;6504;53.766;9.626;2023-04-15T07:53:31;8.60;99.90
12872;DHT22;6504;53.766;9.626;2023-04-15T07:55:59;8.60;99.90
12872;DHT22;6504;53.766;9.626;2023-04-15T07:58:27;8.60;99.90
12872;DHT22;6504;53.766;9.626;2023-04-15T08:00:55;8.60;99.90
12872;DHT22;6504;53.766;9.626;2023-04-15T08:03:25;8.70;99.90
12872;DHT22;6504;53.766;9.626;2023-04-15T08:05:53;8.60;99.90
12872;DHT22;6504;53.766;9.626;2023-04-15T08:08:21;8.70;99.90
12872;DHT22;6504;53.766;9.626;2023-04-15T08:10:50;8.70;99.90
12872;DHT22;6504;53.766;9.626;2023-04-15T08:13:18;8.70;99.90
12872;DHT22;6504;53.766;9.626;2023-04-15T08:16:13;8.70;99.90
12872;DHT22;6504;53.766;9.626;2023-04-15T08:18:43;8.70;99.90
12872;DHT22;6504;53.766;9.626;2023-04-15T08:21:11;8.70;99.90
12872;DHT22;6504;53.766;9.626;2023-04-15T08:23:39;8.70;99.90
12872;DHT22;6504;53.766;9.626;2023-04-15T08:26:08;8.70;99.90
12872;DHT22;6504;53.766;9.626;2023-04-15T08:28:38;8.70;99.90
12872;DHT22;6504;53.766;9.626;2023-04-15T08:31:06;8.70;99.90
12872;DHT22;6504;53.766;9.626;2023-04-15T08:33:35;8.70;99.90
12872;DHT22;6504;53.766;9.626;2023-04-15T08:36:05;8.70;99.90
12872;DHT22;6504;53.766;9.626;2023-04-15T08:38:33;8.70;99.90
12872;DHT22;6504;53.766;9.626;2023-04-15T08:41:06;8.70;99.90
12872;DHT22;6504;53.766;9.626;2023-04-15T08:43:38;8.80;99.90
12872;DHT22;6504;53.766;9.626;2023-04-15T08:46:10;8.80;99.90
12872;DHT22;6504;53.766;9.626;2023-04-15T08:48:39;8.80;99.90
12872;DHT22;6504;53.766;9.626;2023-04-15T08:51:10;8.80;99.90
12872;DHT22;6504;53.766;9.626;2023-04-15T08:53:42;8.90;99.90
12872;DHT22;6504;53.766;9.626;2023-04-15T08:56:14;8.90;99.90
12872;DHT22;6504;53.766;9.626;2023-04-15T08:58:43;8.90;99.90
12872;DHT22;6504;53.766;9.626;2023-04-15T09:01:12;8.90;99.90
12872;DHT22;6504;53.766;9.626;2023-04-15T09:03:42;8.90;99.90
12872;DHT22;6504;53.766;9.626;2023-04-15T09:06:12;8.90;99.90
12872;DHT22;6504;53.766;9.626;2023-04-15T09:08:40;9.00;99.90
12872;DHT22;6504;53.766;9.626;2023-04-15T09:11:08;9.00;99.90
12872;DHT22;6504;53.766;9.626;2023-04-15T09:13:36;9.00;99.90
12872;DHT22;6504;53.766;9.626;2023-04-15T09:16:05;9.00;99.90
12872;DHT22;6504;53.766;9.626;2023-04-15T09:18:35;9.00;99.90
12872;DHT22;6504;53.766;9.626;2023-04-15T09:21:04;9.00;99.90
12872;DHT22;6504;53.766;9.626;2023-04-15T09:23:36;9.00;99.90
12872;DHT22;6504;53.766;9.626;2023-04-15T09:26:05;9.10;99.90
12872;DHT22;6504;53.766;9.626;2023-04-15T09:28:40;9.10;99.90
12872;DHT22;6504;53.766;9.626;2023-04-15T09:31:09;9.10;99.90
12872;DHT22;6504;53.766;9.626;2023-04-15T09:33:53;9.20;99.90
12872;DHT22;6504;53.766;9.626;2023-04-15T09:36:22;9.20;99.90
12872;DHT22;6504;53.766;9.626;2023-04-15T09:38:55;9.30;99.90
12872;DHT22;6504;53.766;9.626;2023-04-15T09:41:24;9.30;99.90
12872;DHT22;6504;53.766;9.626;2023-04-15T09:43:52;9.30;99.90
12872;DHT22;6504;53.766;9.626;2023-04-15T09:46:20;9.30;99.90
12872;DHT22;6504;53.766;9.626;2023-04-15T09:49:07;9.40;99.90
12872;DHT22;6504;53.766;9.626;2023-04-15T09:51:36;9.40;99.90
12872;DHT22;6504;53.766;9.626;2023-04-15T09:54:05;9.40;99.90
12872;DHT22;6504;53.766;9.626;2023-04-15T09:56:34;9.50;99.90
12872;DHT22;6504;53.766;9.626;2023-04-15T09:59:04;9.50;99.90
12872;DHT22;6504;53.766;9.626;2023-04-15T10:01:32;9.50;99.90
12872;DHT22;6504;53.766;9.626;2023-04-15T10:04:02;9.60;99.90
12872;DHT22;6504;53.766;9.626;2023-04-15T10:06:32;9.60;99.90
12872;DHT22;6504;53.766;9.626;2023-04-15T10:09:01;9.60;99.90
12872;DHT22;6504;53.766;9.626;2023-04-15T10:11:32;9.70;99.90
12872;DHT22;6504;53.766;9.626;2023-04-15T10:14:02;9.70;99.90
12872;DHT22;6504;53.766;9.626;2023-04-15T10:16:32;9.80;99.90
12872;DHT22;6504;53.766;9.626;2023-04-15T10:19:01;9.80;99.90
12872;DHT22;6504;53.766;9.626;2023-04-15T10:21:30;9.90;99.90
12872;DHT22;6504;53.766;9.626;2023-04-15T10:23:58;9.90;99.90
12872;DHT22;6504;53.766;9.626;2023-04-15T10:26:27;10.00;99.90
12872;DHT22;6504;53.766;9.626;2023-04-15T10:28:58;10.00;99.90
12872;DHT22;6504;53.766;9.626;2023-04-15T10:31:27;10.10;99.90
12872;DHT22;6504;53.766;9.626;2023-04-15T10:33:56;10.10;99.90
12872;DHT22;6504;53.766;9.626;2023-04-15T10:36:25;10.20;99.90
12872;DHT22;6504;53.766;9.626;2023-04-15T10:38:53;10.30;99.90
12872;DHT22;6504;53.766;9.626;2023-04-15T10:41:22;10.30;99.90
12872;DHT22;6504;53.766;9.626;2023-04-15T10:43:52;10.40;99.90
12872;DHT22;6504;53.766;9.626;2023-04-15T10:46:24;10.40;99.90
12872;DHT22;6504;53.766;9.626;2023-04-15T10:49:06;10.50;99.90
12872;DHT22;6504;53.766;9.626;2023-04-15T10:51:38;10.60;99.90
12872;DHT22;6504;53.766;9.626;2023-04-15T10:54:09;10.70;99.90
12872;DHT22;6504;53.766;9.626;2023-04-15T10:56:41;10.80;99.90
12872;DHT22;6504;53.766;9.626;2023-04-15T10:59:09;10.90;99.90
12872;DHT22;6504;53.766;9.626;2023-04-15T11:01:52;10.90;99.90
12872;DHT22;6504;53.766;9.626;2023-04-15T11:04:51;11.00;99.90
12872;DHT22;6504;53.766;9.626;2023-04-15T11:07:36;11.10;99.90
12872;DHT22;6504;53.766;9.626;2023-04-15T11:13:26;11.20;99.90
12872;DHT22;6504;53.766;9.626;2023-04-15T11:15:56;11.30;99.90
12872;DHT22;6504;53.766;9.626;2023-04-15T11:18:28;11.40;99.90
12872;DHT22;6504;53.766;9.626;2023-04-15T11:20:58;11.50;99.90
12872;DHT22;6504;53.766;9.626;2023-04-15T11:23:28;11.60;99.90
12872;DHT22;6504;53.766;9.626;2023-04-15T11:25:58;11.70;99.90
12872;DHT22;6504;53.766;9.626;2023-04-15T11:28:26;11.80;99.90
12872;DHT22;6504;53.766;9.626;2023-04-15T11:30:55;11.90;99.90
12872;DHT22;6504;53.766;9.626;2023-04-15T11:33:23;12.00;99.90
12872;DHT22;6504;53.766;9.626;2023-04-15T11:35:54;12.00;99.90
12872;DHT22;6504;53.766;9.626;2023-04-15T11:38:22;12.10;99.90
12872;DHT22;6504;53.766;9.626;2023-04-15T11:40:50;12.20;99.90
12872;DHT22;6504;53.766;9.626;2023-04-15T11:43:20;12.30;99.90
12872;DHT22;6504;53.766;9.626;2023-04-15T11:45:51;12.40;99.90
12872;DHT22;6504;53.766;9.626;2023-04-15T11:48:20;12.40;99.90
12872;DHT22;6504;53.766;9.626;2023-04-15T11:50:54;12.60;99.90
12872;DHT22;6504;53.766;9.626;2023-04-15T11:53:23;12.70;99.90
12872;DHT22;6504;53.766;9.626;2023-04-15T11:55:52;12.70;99.90
12872;DHT22;6504;53.766;9.626;2023-04-15T11:58:22;12.80;99.90
12872;DHT22;6504;53.766;9.626;2023-04-15T12:00:51;12.80;99.90
12872;DHT22;6504;53.766;9.626;2023-04-15T12:03:23;12.80;99.90
12872;DHT22;6504;53.766;9.626;2023-04-15T12:06:14;12.80;99.90
12872;DHT22;6504;53.766;9.626;2023-04-15T12:09:03;12.80;99.90
12872;DHT22;6504;53.766;9.626;2023-04-15T12:11:36;12.70;99.90
12872;DHT22;6504;53.766;9.626;2023-04-15T12:14:10;12.70;99.90
12872;DHT22;6504;53.766;9.626;2023-04-15T12:16:40;12.70;99.90
12872;DHT22;6504;53.766;9.626;2023-04-15T12:19:16;12.70;99.90
12872;DHT22;6504;53.766;9.626;2023-04-15T12:21:47;12.70;99.90
12872;DHT22;6504;53.766;9.626;2023-04-15T12:24:19;12.80;99.90
12872;DHT22;6504;53.766;9.626;2023-04-15T12:26:49;12.80;99.90
12872;DHT22;6504;53.766;9.626;2023-04-15T12:29:19;12.80;99.90
12872;DHT22;6504;53.766;9.626;2023-04-15T12:31:49;12.70;99.90
12872;DHT22;6504;53.766;9.626;2023-04-15T12:34:25;12.70;99.90
12872;DHT22;6504;53.766;9.626;2023-04-15T12:36:56;12.70;99.90
12872;DHT22;6504;53.766;9.626;2023-04-15T12:39:26;12.70;99.90
12872;DHT22;6504;53.766;9.626;2023-04-15T12:41:56;12.70;99.90
12872;DHT22;6504;53.766;9.626;2023-04-15T12:44:25;12.70;99.90
12872;DHT22;6504;53.766;9.626;2023-04-15T12:46:53;12.80;99.90
12872;DHT22;6504;53.766;9.626;2023-04-15T12:49:23;12.80;99.90
12872;DHT22;6504;53.766;9.626;2023-04-15T12:51:52;12.80;99.90
12872;DHT22;6504;53.766;9.626;2023-04-15T12:54:21;12.90;99.90
12872;DHT22;6504;53.766;9.626;2023-04-15T12:56:50;12.90;99.90
12872;DHT22;6504;53.766;9.626;2023-04-15T12:59:18;12.90;99.90
12872;DHT22;6504;53.766;9.626;2023-04-15T13:01:47;13.00;99.90
12872;DHT22;6504;53.766;9.626;2023-04-15T13:04:15;13.00;99.90
12872;DHT22;6504;53.766;9.626;2023-04-15T13:06:44;13.10;99.90
12872;DHT22;6504;53.766;9.626;2023-04-15T13:09:12;13.20;99.90
12872;DHT22;6504;53.766;9.626;2023-04-15T13:11:41;13.10;99.90
12872;DHT22;6504;53.766;9.626;2023-04-15T13:14:10;13.20;99.90
12872;DHT22;6504;53.766;9.626;2023-04-15T13:16:39;13.10;99.90
12872;DHT22;6504;53.766;9.626;2023-04-15T13:19:07;13.20;99.90
12872;DHT22;6504;53.766;9.626;2023-04-15T13:21:35;13.30;99.90
12872;DHT22;6504;53.766;9.626;2023-04-15T13:24:03;13.30;99.90
12872;DHT22;6504;53.766;9.626;2023-04-15T13:26:33;13.30;99.90
12872;DHT22;6504;53.766;9.626;2023-04-15T13:29:03;13.30;99.90
12872;DHT22;6504;53.766;9.626;2023-04-15T13:31:31;13.30;99.90
12872;DHT22;6504;53.766;9.626;2023-04-15T13:33:59;13.30;99.90
12872;DHT22;6504;53.766;9.626;2023-04-15T13:36:27;13.40;99.90
12872;DHT22;6504;53.766;9.626;2023-04-15T13:38:55;13.30;99.90
12872;DHT22;6504;53.766;9.626;2023-04-15T13:41:24;13.30;99.90
12872;DHT22;6504;53.766;9.626;2023-04-15T13:43:52;13.30;99.90
12872;DHT22;6504;53.766;9.626;2023-04-15T13:46:21;13.20;99.90
12872;DHT22;6504;53.766;9.626;2023-04-15T13:48:49;13.20;99.90
12872;DHT22;6504;53.766;9.626;2023-04-15T13:51:17;13.20;99.90
12872;DHT22;6504;53.766;9.626;2023-04-15T13:53:45;13.10;99.90
12872;DHT22;6504;53.766;9.626;2023-04-15T13:56:13;13.10;99.90
12872;DHT22;6504;53.766;9.626;2023-04-15T13:58:41;13.20;99.90
12872;DHT22;6504;53.766;9.626;2023-04-15T14:01:09;13.20;99.90
12872;DHT22;6504;53.766;9.626;2023-04-15T14:03:39;13.20;99.90
12872;DHT22;6504;53.766;9.626;2023-04-15T14:06:07;13.30;99.90
12872;DHT22;6504;53.766;9.626;2023-04-15T14:08:35;13.30;99.90
12872;DHT22;6504;53.766;9.626;2023-04-15T14:11:03;13.30;99.90
12872;DHT22;6504;53.766;9.626;2023-04-15T14:13:31;13.30;99.90
12872;DHT22;6504;53.766;9.626;2023-04-15T14:15:59;13.40;99.90
12872;DHT22;6504;53.766;9.626;2023-04-15T14:18:27;13.40;99.90
12872;DHT22;6504;53.766;9.626;2023-04-15T14:20:57;13.30;99.90
12872;DHT22;6504;53.766;9.626;2023-04-15T14:23:25;13.30;99.90
12872;DHT22;6504;53.766;9.626;2023-04-15T14:25:53;13.20;99.90
12872;DHT22;6504;53.766;9.626;2023-04-15T14:28:21;13.20;99.90
12872;DHT22;6504;53.766;9.626;2023-04-15T14:30:49;13.30;99.90
12872;DHT22;6504;53.766;9.626;2023-04-15T14:33:18;13.30;99.90
12872;DHT22;6504;53.766;9.626;2023-04-15T14:35:46;13.20;99.90
12872;DHT22;6504;53.766;9.626;2023-04-15T14:38:15;13.20;99.90
12872;DHT22;6504;53.766;9.626;2023-04-15T14:40:43;13.20;99.90
12872;DHT22;6504;53.766;9.626;2023-04-15T14:43:11;13.20;99.90
12872;DHT22;6504;53.766;9.626;2023-04-15T14:45:39;13.20;99.90
12872;DHT22;6504;53.766;9.626;2023-04-15T14:48:11;13.20;99.90
12872;DHT22;6504;53.766;9.626;2023-04-15T14:50:39;13.10;99.90
12872;DHT22;6504;53.766;9.626;2023-04-15T14:53:07;13.10;99.90
12872;DHT22;6504;53.766;9.626;2023-04-15T14:55:37;13.00;99.90
12872;DHT22;6504;53.766;9.626;2023-04-15T14:58:05;13.00;99.90
12872;DHT22;6504;53.766;9.626;2023-04-15T15:00:35;13.00;99.90
12872;DHT22;6504;53.766;9.626;2023-04-15T15:03:06;13.00;99.90
12872;DHT22;6504;53.766;9.626;2023-04-15T15:05:39;13.00;99.90
12872;DHT22;6504;53.766;9.626;2023-04-15T15:08:07;13.00;99.90
12872;DHT22;6504;53.766;9.626;2023-04-15T15:10:38;13.00;99.90
12872;DHT22;6504;53.766;9.626;2023-04-15T15:13:15;12.90;99.90
12872;DHT22;6504;53.766;9.626;2023-04-15T15:15:44;13.00;99.90
12872;DHT22;6504;53.766;9.626;2023-04-15T15:18:12;13.00;99.90
12872;DHT22;6504;53.766;9.626;2023-04-15T15:20:40;13.00;99.90
12872;DHT22;6504;53.766;9.626;2023-04-15T15:23:08;13.10;99.90
12872;DHT22;6504;53.766;9.626;2023-04-15T15:25:38;13.10;99.90
12872;DHT22;6504;53.766;9.626;2023-04-15T15:28:06;13.10;99.90
12872;DHT22;6504;53.766;9.626;2023-04-15T15:30:34;13.10;99.90
12872;DHT22;6504;53.766;9.626;2023-04-15T15:33:02;13.10;99.90
12872;DHT22;6504;53.766;9.626;2023-04-15T15:35:31;13.10;99.90
12872;DHT22;6504;53.766;9.626;2023-04-15T15:37:59;13.10;99.90
12872;DHT22;6504;53.766;9.626;2023-04-15T15:40:27;13.10;99.90
12872;DHT22;6504;53.766;9.626;2023-04-15T15:42:56;13.10;99.90
12872;DHT22;6504;53.766;9.626;2023-04-15T15:45:24;13.10;99.90
12872;DHT22;6504;53.766;9.626;2023-04-15T15:47:52;13.10;99.90
12872;DHT22;6504;53.766;9.626;2023-04-15T15:50:23;13.10;99.90
12872;DHT22;6504;53.766;9.626;2023-04-15T15:52:51;13.10;99.90
12872;DHT22;6504;53.766;9.626;2023-04-15T15:55:19;13.00;99.90
12872;DHT22;6504;53.766;9.626;2023-04-15T15:57:47;12.90;99.90
12872;DHT22;6504;53.766;9.626;2023-04-15T16:00:17;12.80;99.90
12872;DHT22;6504;53.766;9.626;2023-04-15T16:02:45;12.80;99.90
12872;DHT22;6504;53.766;9.626;2023-04-15T16:05:16;12.80;99.90
12872;DHT22;6504;53.766;9.626;2023-04-15T16:07:44;12.70;99.90
12872;DHT22;6504;53.766;9.626;2023-04-15T16:10:12;12.70;99.90
12872;DHT22;6504;53.766;9.626;2023-04-15T16:12:40;12.60;99.90